Time;durP1;ratioP1;P1;durP2;ratioP2;P2;SDS_P1;SDS_P2;PMS_P1;PMS_P2;Temp;Humidity;BMP_temperature;BMP_pressure;BME280_temperature;BME280_humidity;BME280_pressure;Samples;Min_cycle;Max_cycle;Signal;HPM_P1;HPM_P2
2023/01/21 00:07:27;;;;;;;22.50;11.10;;;;;;;2.48;95.68;100925.02;682694;1259;139474;-78
2023/01/21 00:22:32;;;;;;;26.80;11.70;;;;;;;2.41;95.65;100897.67;683326;1260;139128;-79
2023/01/21 00:37:35;;;;;;;38.90;15.00;;;;;;;2.22;96.09;100882.30;682859;1257;139366;-78
2023/01/21 00:52:38;;;;;;;36.60;11.60;;;;;;;1.96;95.76;100878.56;683125;1259;138791;-79
2023/01/21 01:07:42;;;;;;;23.00;10.50;;;;;;;1.87;96.34;100877.25;682773;1263;139725;-79
2023/01/21 01:22:45;;;;;;;25.40;11.90;;;;;;;1.88;95.74;100889.77;683184;1262;140348;-78
2023/01/21 01:37:48;;;;;;;21.10;9.00;;;;;;;1.87;95.59;100902.42;683255;1261;139745;-79
2023/01/21 01:52:53;;;;;;;15.40;8.40;;;;;;;1.94;95.12;100901.45;683257;1262;138944;-77
2023/01/21 02:07:58;;;;;;;14.10;7.90;;;;;;;2.01;95.13;100902.17;683539;1262;139200;-77
2023/01/21 02:23:47;;;;;;;17.70;7.20;;;;;;;2.05;95.08;100892.54;682940;1259;138834;-79
2023/01/21 02:38:50;;;;;;;22.30;8.40;;;;;;;2.09;94.94;100889.77;683159;1262;140020;-78
2023/01/21 02:53:53;;;;;;;12.90;8.20;;;;;;;2.13;94.82;100877.33;682932;1259;139312;-78
2023/01/21 03:08:59;;;;;;;11.90;5.70;;;;;;;2.18;94.45;100860.02;682882;1262;140312;-78
2023/01/21 03:24:05;;;;;;;10.60;4.70;;;;;;;2.22;93.96;100858.33;682857;1262;139350;-78
2023/01/21 03:39:26;;;;;;;12.90;5.70;;;;;;;2.18;93.27;100857.10;683034;1260;138528;-79
2023/01/21 03:54:30;;;;;;;9.40;4.60;;;;;;;2.13;93.45;100841.45;682915;1263;140146;-78
2023/01/21 04:09:33;;;;;;;5.30;3.70;;;;;;;2.16;93.29;100822.87;682909;1262;138886;-79
2023/01/21 04:24:36;;;;;;;11.20;4.60;;;;;;;2.10;93.38;100819.15;682786;1263;138668;-79
2023/01/21 04:39:40;;;;;;;10.90;5.90;;;;;;;2.05;92.90;100805.73;683187;1263;138344;-79
2023/01/21 04:54:43;;;;;;;48.80;25.40;;;;;;;2.04;93.28;100809.23;682879;1262;139395;-78
2023/01/21 05:09:47;;;;;;;12.30;6.00;;;;;;;2.04;92.80;100813.87;682946;1262;138721;-79
2023/01/21 05:24:50;;;;;;;14.20;7.70;;;;;;;2.06;93.03;100823.98;682862;1262;140453;-78
2023/01/21 05:39:53;;;;;;;14.90;7.90;;;;;;;2.07;93.08;100833.61;682912;1263;139105;-79
2023/01/21 05:54:56;;;;;;;16.50;8.00;;;;;;;2.15;92.87;100822.21;682864;1262;138598;-78
2023/01/21 06:10:05;;;;;;;15.30;8.00;;;;;;;2.23;92.96;100812.73;683149;1267;138594;-79
2023/01/21 06:25:09;;;;;;;31.60;13.80;;;;;;;2.09;94.71;100809.48;682632;1263;140164;-78
2023/01/21 06:40:13;;;;;;;16.50;8.00;;;;;;;2.00;95.93;100813.20;682910;1263;138577;-79
2023/01/21 06:55:16;;;;;;;165.30;53.90;;;;;;;1.98;96.47;100817.27;682743;1263;139455;-80
2023/01/21 07:10:20;;;;;;;62.50;34.90;;;;;;;1.98;97.85;100803.61;683115;1258;138945;-78
2023/01/21 07:25:24;;;;;;;20.90;11.30;;;;;;;1.91;98.65;100783.75;682741;1257;139704;-78
2023/01/21 07:40:27;;;;;;;24.80;12.60;;;;;;;1.98;99.00;100752.36;683076;1263;139734;-78
2023/01/21 07:55:31;;;;;;;29.10;13.20;;;;;;;2.18;99.54;100730.24;682731;1262;141991;-79
2023/01/21 08:10:34;;;;;;;37.70;19.00;;;;;;;2.27;99.60;100710.86;682957;1263;138620;-79
2023/01/21 08:25:37;;;;;;;18.20;9.70;;;;;;;2.37;99.93;100704.50;683197;1264;139199;-79
2023/01/21 08:40:40;;;;;;;28.40;9.50;;;;;;;2.40;100.00;100700.92;683101;1273;140963;-79
2023/01/21 08:55:44;;;;;;;38.70;16.90;;;;;;;2.56;100.00;100708.13;682890;1263;139721;-80
2023/01/21 09:10:59;;;;;;;68.20;23.10;;;;;;;2.52;100.00;100740.58;682919;1261;139378;-80
2023/01/21 09:26:18;;;;;;;54.80;21.90;;;;;;;2.45;100.00;100764.21;682523;1257;185985;-80
2023/01/21 09:41:37;;;;;;;32.40;16.70;;;;;;;2.48;100.00;100762.36;682829;1262;138879;-83
2023/01/21 09:56:55;;;;;;;99.80;34.90;;;;;;;2.58;100.00;100763.63;683053;1259;139131;-86
2023/01/21 10:12:11;;;;;;;148.50;46.10;;;;;;;2.64;100.00;100744.16;683021;1257;139296;-86
2023/01/21 10:27:18;;;;;;;17.20;8.70;;;;;;;2.66;100.00;100756.88;683301;1257;139892;-84
2023/01/21 10:42:50;;;;;;;55.80;24.20;;;;;;;2.77;100.00;100755.85;682767;1261;138849;-82
2023/01/21 10:58:03;;;;;;;80.80;36.00;;;;;;;3.00;100.00;100758.86;682966;1257;139955;-83
2023/01/21 11:13:13;;;;;;;78.30;35.00;;;;;;;3.01;100.00;100756.91;683017;1261;139360;-82
2023/01/21 11:28:25;;;;;;;52.40;25.00;;;;;;;2.96;100.00;100758.71;682950;1258;139159;-84
2023/01/21 11:44:05;;;;;;;22.60;11.40;;;;;;;2.93;100.00;100758.33;682872;1262;139208;-86
2023/01/21 11:59:20;;;;;;;103.90;43.40;;;;;;;2.87;100.00;100761.08;683330;1260;139038;-84
2023/01/21 12:14:43;;;;;;;30.60;16.10;;;;;;;2.86;100.00;100776.52;682595;1259;139126;-82
2023/01/21 12:30:15;;;;;;;28.70;14.60;;;;;;;2.99;100.00;100790.21;682819;1257;139042;-83
2023/01/21 12:45:26;;;;;;;29.60;14.40;;;;;;;3.01;100.00;100790.11;682886;1260;139406;-83
2023/01/21 13:00:42;;;;;;;22.50;12.00;;;;;;;3.11;100.00;100814.00;683064;1260;139559;-85
2023/01/21 13:15:50;;;;;;;25.20;13.70;;;;;;;3.09;100.00;100816.15;682876;1259;138610;-86
2023/01/21 13:31:14;;;;;;;27.90;16.50;;;;;;;3.13;100.00;100833.62;682857;1262;139824;-87
2023/01/21 13:46:32;;;;;;;84.70;28.00;;;;;;;3.16;100.00;100849.02;683303;1262;139039;-87
2023/01/21 14:01:48;;;;;;;54.90;24.20;;;;;;;3.24;100.00;100875.26;682958;1259;138901;-86
2023/01/21 14:17:03;;;;;;;60.50;22.90;;;;;;;3.24;100.00;100901.38;683206;1257;138825;-85
2023/01/21 14:32:21;;;;;;;38.40;19.50;;;;;;;3.27;100.00;100925.23;683110;1260;138988;-84
2023/01/21 14:47:30;;;;;;;42.00;22.30;;;;;;;3.23;100.00;100933.73;683350;1263;139443;-85
2023/01/21 15:02:44;;;;;;;47.60;21.00;;;;;;;3.23;100.00;100956.74;683069;1262;140064;-84
2023/01/21 15:17:53;;;;;;;58.40;24.70;;;;;;;3.21;100.00;100976.35;683131;1259;139450;-83
2023/01/21 15:32:57;;;;;;;80.90;36.30;;;;;;;3.28;100.00;100997.10;682868;1259;139047;-81
2023/01/21 15:48:09;;;;;;;134.40;46.70;;;;;;;3.24;100.00;101008.38;682866;1261;139405;-82
2023/01/21 16:03:25;;;;;;;31.90;15.50;;;;;;;3.27;100.00;101014.14;682816;1262;139472;-81
2023/01/21 16:18:38;;;;;;;50.60;23.50;;;;;;;3.26;100.00;101030.80;682989;1257;138904;-81
2023/01/21 16:33:41;;;;;;;65.10;32.70;;;;;;;3.36;100.00;101054.70;682830;1263;140252;-82
2023/01/21 16:48:56;;;;;;;131.80;52.60;;;;;;;3.41;100.00;101080.91;682668;1260;140470;-83
2023/01/21 17:04:00;;;;;;;75.10;27.80;;;;;;;3.37;100.00;101105.98;682804;1262;141264;-83
2023/01/21 17:19:20;;;;;;;147.10;65.80;;;;;;;3.41;100.00;101125.36;682936;1262;138742;-82
2023/01/21 17:34:36;;;;;;;73.90;34.60;;;;;;;3.41;100.00;101147.83;682843;1260;140856;-83
2023/01/21 17:49:44;;;;;;;87.90;39.90;;;;;;;3.46;100.00;101163.52;682644;1262;138922;-82
2023/01/21 18:04:48;;;;;;;41.70;22.80;;;;;;;3.49;100.00;101186.23;682815;1262;139070;-82
2023/01/21 18:19:52;;;;;;;50.80;25.80;;;;;;;3.39;100.00;101214.16;682830;1262;139300;-81
2023/01/21 18:34:55;;;;;;;47.00;22.10;;;;;;;3.42;100.00;101233.56;682865;1260;139095;-81
2023/01/21 18:50:01;;;;;;;53.40;23.30;;;;;;;3.41;100.00;101253.20;682589;1262;138895;-82
2023/01/21 19:05:05;;;;;;;91.20;33.70;;;;;;;3.38;100.00;101262.67;682779;1263;139420;-82
2023/01/21 19:20:20;;;;;;;98.30;49.20;;;;;;;3.26;100.00;101273.66;682419;1262;139284;-80
2023/01/21 19:35:32;;;;;;;61.60;21.20;;;;;;;3.25;100.00;101286.69;682886;1263;139035;-80
2023/01/21 19:50:36;;;;;;;46.10;24.20;;;;;;;3.26;100.00;101310.52;682801;1262;139663;-79
2023/01/21 20:05:41;;;;;;;44.10;20.90;;;;;;;3.30;100.00;101332.66;682702;1262;139251;-81
2023/01/21 20:20:44;;;;;;;52.30;22.80;;;;;;;3.30;100.00;101355.31;682570;1259;140328;-81
2023/01/21 20:35:51;;;;;;;52.30;25.10;;;;;;;3.37;100.00;101376.83;682590;1263;139377;-81
2023/01/21 20:50:55;;;;;;;50.90;23.40;;;;;;;3.25;100.00;101393.00;682611;1272;139251;-83
2023/01/21 21:05:58;;;;;;;41.50;18.50;;;;;;;3.20;100.00;101412.23;682537;1263;139850;-84
2023/01/21 21:21:01;;;;;;;88.20;34.70;;;;;;;3.11;100.00;101425.55;682670;1272;140540;-81
2023/01/21 21:36:11;;;;;;;58.10;27.60;;;;;;;3.06;100.00;101440.80;682642;1267;178777;-83
2023/01/21 21:51:17;;;;;;;26.30;14.60;;;;;;;3.06;100.00;101454.96;682708;1262;140116;-83
2023/01/21 22:06:21;;;;;;;31.50;16.40;;;;;;;3.11;100.00;101454.05;682755;1263;140993;-84
2023/01/21 22:21:31;;;;;;;42.20;18.60;;;;;;;3.22;100.00;101464.19;683224;1262;138933;-82
2023/01/21 22:36:35;;;;;;;37.90;16.50;;;;;;;3.35;100.00;101472.88;682678;1263;139152;-82
2023/01/21 22:51:40;;;;;;;34.10;15.90;;;;;;;3.39;100.00;101489.68;682865;1270;138875;-82
2023/01/21 23:06:44;;;;;;;35.60;14.30;;;;;;;3.36;100.00;101493.77;682715;1262;138840;-84
2023/01/21 23:21:47;;;;;;;39.80;19.10;;;;;;;3.35;100.00;101509.53;682944;1260;139092;-83
2023/01/21 23:36:50;;;;;;;40.00;17.50;;;;;;;3.40;100.00;101522.86;682478;1263;138903;-83
2023/01/21 23:51:53;;;;;;;40.00;17.20;;;;;;;3.44;100.00;101529.77;682929;1263;139022;-81
